createdAt,value
2023-05-24T05:50:04.029Z,5.9
2023-05-24T06:06:59.558Z,4.8
2023-05-24T06:12:33.514Z,4.8
2023-05-24T06:18:05.767Z,3.6
2023-05-24T06:23:33.554Z,2.4
2023-05-24T06:29:06.479Z,2.4
2023-05-24T06:34:29.601Z,7.2
2023-05-24T06:40:29.769Z,8.4
2023-05-24T06:45:44.720Z,8.4
2023-05-24T06:51:15.431Z,8.4
2023-05-24T06:57:15.686Z,10.7
2023-05-24T07:02:50.642Z,8.4
2023-05-24T07:13:32.717Z,9.6
2023-05-24T07:19:15.861Z,11.9
2023-05-24T07:24:53.395Z,10.7
2023-05-24T07:30:32.095Z,11.9
2023-05-24T07:36:15.444Z,14.4
2023-05-24T07:41:40.653Z,13.2
2023-05-24T07:47:30.039Z,13.2
2023-05-24T07:52:57.478Z,15.6
2023-05-24T07:58:25.713Z,11.9
2023-05-24T08:04:02.910Z,13.2
2023-05-24T08:09:30.713Z,11.9
2023-05-24T08:15:17.972Z,13.2
2023-05-24T08:20:36.438Z,11.9
2023-05-24T08:26:21.148Z,13.2
2023-05-24T08:31:51.268Z,13.2
2023-05-24T08:54:21.294Z,10.7
2023-05-24T08:59:58.462Z,8.4
2023-05-24T09:16:33.765Z,9.6
2023-05-24T10:01:37.314Z,13.2
2023-05-24T10:07:00.694Z,13.2
2023-05-24T10:18:04.939Z,13.2
2023-05-24T10:46:06.113Z,11.9
2023-05-24T11:42:32.218Z,11.9
2023-05-24T11:59:03.087Z,5.9
2023-05-24T12:04:30.611Z,13.2
2023-05-24T12:10:26.308Z,11.9
2023-05-24T12:16:06.383Z,9.6
2023-05-24T12:21:30.618Z,15.6
2023-05-24T12:27:13.339Z,10.7
2023-05-24T12:32:34.285Z,14.4
2023-05-24T12:38:09.927Z,16.8
2023-05-24T12:44:03.156Z,14.4
2023-05-24T12:49:20.992Z,10.7
2023-05-24T12:55:05.424Z,10.7
2023-05-24T13:06:23.397Z,10.7
2023-05-24T13:11:36.377Z,11.9
2023-05-24T13:17:25.346Z,16.8
2023-05-24T13:22:52.200Z,14.4
2023-05-24T13:34:04.895Z,14.4
2023-05-24T13:39:55.667Z,14.4
2023-05-24T13:45:30.734Z,14.4
2023-05-24T13:50:51.155Z,10.7
2023-05-24T13:56:23.503Z,7.2
2023-05-24T14:01:55.567Z,8.4
2023-05-24T14:07:28.357Z,8.4
2023-05-24T14:24:34.383Z,8.4
2023-05-24T14:30:16.669Z,9.6
2023-05-24T14:35:34.392Z,9.6
2023-05-24T14:41:22.524Z,10.7
2023-05-24T14:46:35.263Z,9.6
2023-05-24T14:52:23.059Z,5.9
2023-05-24T14:57:50.600Z,8.4
2023-05-24T15:09:00.050Z,8.4
2023-05-24T16:49:52.864Z,9.6
2023-05-24T17:34:35.458Z,7.2
2023-05-24T17:40:11.337Z,8.4
2023-05-24T20:50:24.609Z,0
